Time;durP1;ratioP1;P1;durP2;ratioP2;P2;SDS_P1;SDS_P2;PMS_P1;PMS_P2;Temp;Humidity;BMP_temperature;BMP_pressure;BME280_temperature;BME280_humidity;BME280_pressure;Samples;Min_cycle;Max_cycle;Signal;HPM_P1;HPM_P2
2022/03/27 00:01:24;;;;;;;5.90;1.20;;;;;;;4.28;64.54;102966.47;4816114;29;20034;-78
2022/03/27 00:03:50;;;;;;;3.67;1.10;;;;;;;4.38;63.84;102975.56;4793716;29;20038;-77
2022/03/27 00:06:16;;;;;;;5.65;1.27;;;;;;;4.31;64.11;102966.28;4795119;29;20053;-77
2022/03/27 00:08:41;;;;;;;6.68;1.30;;;;;;;4.47;64.28;103006.91;4796905;29;20035;-78
2022/03/27 00:11:25;;;;;;;4.82;1.30;;;;;;;4.52;64.08;103017.25;4804653;30;20037;-77
2022/03/27 00:13:52;;;;;;;10.18;1.13;;;;;;;4.51;63.78;103026.22;4790115;29;20039;-77
2022/03/27 00:16:19;;;;;;;7.07;1.40;;;;;;;4.31;64.28;102984.94;4791794;29;20045;-78
2022/03/27 00:18:51;;;;;;;3.95;1.10;;;;;;;4.50;65.02;103029.81;4809092;29;20462;-77
2022/03/27 00:21:17;;;;;;;6.05;1.27;;;;;;;4.43;65.14;103007.22;4816756;29;20039;-78
2022/03/27 00:23:44;;;;;;;5.60;1.23;;;;;;;4.46;65.25;103007.84;4814986;29;20027;-78
2022/03/27 00:26:11;;;;;;;4.75;1.60;;;;;;;4.27;65.98;102963.91;4809383;29;20042;-78
2022/03/27 00:28:37;;;;;;;5.20;1.60;;;;;;;4.39;66.20;102979.91;4809897;29;20031;-78
2022/03/27 00:31:08;;;;;;;3.47;1.30;;;;;;;4.31;66.75;102981.41;4809783;29;20132;-78
2022/03/27 00:33:35;;;;;;;5.75;1.08;;;;;;;4.27;67.38;102966.56;4780717;29;20581;-78
2022/03/27 00:36:02;;;;;;;4.25;1.30;;;;;;;4.37;66.61;102976.53;4796603;29;20047;-77
2022/03/27 00:38:29;;;;;;;4.15;1.17;;;;;;;4.21;67.67;102938.56;4812641;29;20035;-79
2022/03/27 00:40:55;;;;;;;3.42;1.20;;;;;;;4.39;67.97;102965.75;4814935;29;20037;-78
2022/03/27 00:43:23;;;;;;;6.43;1.50;;;;;;;4.39;68.13;102957.75;4814073;29;20378;-78
2022/03/27 00:45:50;;;;;;;3.58;1.10;;;;;;;4.39;67.90;102963.06;4808969;29;20046;-79
2022/03/27 00:48:20;;;;;;;3.88;1.02;;;;;;;4.33;68.41;102958.16;4792117;29;20034;-78
2022/03/27 00:50:47;;;;;;;4.13;0.98;;;;;;;4.21;68.35;102930.56;4776730;29;20027;-78
2022/03/27 00:53:12;;;;;;;3.10;1.05;;;;;;;4.41;68.70;102962.00;4810793;29;20059;-78
2022/03/27 00:55:38;;;;;;;3.83;1.10;;;;;;;4.43;68.93;102953.91;4797786;29;20385;-79
2022/03/27 00:58:04;;;;;;;7.88;1.55;;;;;;;4.39;69.23;102949.75;4793280;29;20039;-78
2022/03/27 01:00:39;;;;;;;4.38;1.20;;;;;;;4.40;69.70;102946.09;4792358;29;20057;-78
2022/03/27 01:03:20;;;;;;;3.80;1.20;;;;;;;4.36;70.05;102934.81;4814115;29;20454;-78
2022/03/27 01:05:48;;;;;;;5.43;1.13;;;;;;;4.35;70.83;102929.59;4809505;29;20053;-78
2022/03/27 01:08:14;;;;;;;2.85;1.00;;;;;;;4.29;70.60;102930.03;4792337;29;20134;-78
2022/03/27 01:10:41;;;;;;;3.25;1.08;;;;;;;4.26;70.66;102931.06;4777093;29;20118;-77
2022/03/27 01:13:11;;;;;;;2.83;0.90;;;;;;;4.23;69.77;102936.63;4792543;29;20031;-78
2022/03/27 01:15:58;;;;;;;4.63;1.38;;;;;;;4.16;69.42;102928.19;4808030;29;20046;-78
2022/03/27 01:18:26;;;;;;;3.97;1.10;;;;;;;4.11;70.05;102922.34;4777464;29;20031;-78
2022/03/27 01:20:53;;;;;;;3.50;1.00;;;;;;;4.03;69.76;102919.31;4817616;29;20086;-77
2022/03/27 01:23:18;;;;;;;5.50;1.10;;;;;;;4.02;69.54;102916.78;4801607;29;20043;-78
2022/03/27 01:25:45;;;;;;;4.18;1.20;;;;;;;3.99;69.88;102909.84;4806790;29;20045;-78
2022/03/27 01:28:14;;;;;;;6.93;1.00;;;;;;;3.85;69.47;102894.81;4792723;29;20742;-78
2022/03/27 01:30:41;;;;;;;4.38;1.25;;;;;;;3.91;69.65;102914.84;4792413;29;20027;-78
2022/03/27 01:33:09;;;;;;;3.40;1.00;;;;;;;3.68;70.03;102879.13;4808551;29;20478;-79
2022/03/27 01:35:38;;;;;;;5.13;1.00;;;;;;;3.59;69.81;102872.59;4777700;29;20050;-78
2022/03/27 01:38:03;;;;;;;3.85;0.90;;;;;;;3.82;70.22;102920.78;4808138;29;20026;-78
2022/03/27 01:40:29;;;;;;;4.35;0.70;;;;;;;2.93;70.40;102775.88;4806348;29;20061;-78
2022/03/27 01:42:55;;;;;;;4.95;0.90;;;;;;;3.45;70.25;102864.69;4781644;29;20485;-78
2022/03/27 01:45:24;;;;;;;3.30;1.10;;;;;;;3.40;70.33;102849.00;4779505;29;20374;-78
2022/03/27 01:47:50;;;;;;;5.35;1.30;;;;;;;3.53;70.74;102875.66;4788628;29;20426;-78
2022/03/27 01:50:17;;;;;;;4.90;1.35;;;;;;;3.66;70.78;102900.50;4820029;29;20038;-79
2022/03/27 01:52:43;;;;;;;6.13;1.20;;;;;;;3.30;71.16;102845.25;4794316;29;20640;-79
2022/03/27 01:55:13;;;;;;;5.32;1.20;;;;;;;3.32;71.08;102858.47;4779837;29;20047;-78
2022/03/27 01:57:41;;;;;;;5.75;1.00;;;;;;;3.60;71.47;102906.22;4792906;29;20061;-78
2022/03/27 02:00:09;;;;;;;3.60;1.20;;;;;;;3.60;72.73;102908.91;4791695;29;20499;-78
2022/03/27 02:02:35;;;;;;;3.88;0.90;;;;;;;3.60;73.02;102911.56;4777453;29;20054;-78
2022/03/27 02:05:01;;;;;;;3.28;0.95;;;;;;;3.58;73.61;102907.31;4794315;29;20047;-78
2022/03/27 02:07:28;;;;;;;4.22;1.10;;;;;;;3.55;73.72;102902.19;4807447;29;20394;-78
2022/03/27 02:09:54;;;;;;;5.45;1.40;;;;;;;3.45;74.58;102897.47;4792779;29;20051;-79
2022/03/27 02:12:21;;;;;;;4.25;0.95;;;;;;;3.45;74.96;102894.81;4811549;29;20177;-78
2022/03/27 02:14:46;;;;;;;4.53;1.33;;;;;;;3.50;75.43;102898.00;4792406;29;20672;-78
2022/03/27 02:17:12;;;;;;;4.57;0.90;;;;;;;3.43;76.05;102871.91;4776331;29;20035;-78
2022/03/27 02:19:37;;;;;;;4.32;1.00;;;;;;;3.49;76.19;102882.16;4805422;29;20123;-78
2022/03/27 02:22:04;;;;;;;4.85;1.08;;;;;;;3.43;76.42;102863.91;4791541;29;20049;-78
2022/03/27 02:24:29;;;;;;;5.22;1.65;;;;;;;3.51;76.82;102875.78;4805944;29;20046;-78
2022/03/27 02:26:58;;;;;;;6.03;1.13;;;;;;;3.51;77.52;102877.59;4791518;29;20034;-78
2022/03/27 02:29:23;;;;;;;3.63;1.10;;;;;;;3.51;78.14;102880.25;4789925;29;20127;-79
2022/03/27 02:31:50;;;;;;;4.07;1.15;;;;;;;3.47;77.95;102860.09;4806367;29;20043;-77
2022/03/27 02:34:16;;;;;;;3.63;1.10;;;;;;;3.52;78.21;102871.31;4794746;29;20046;-78
2022/03/27 02:36:42;;;;;;;3.92;1.20;;;;;;;3.52;79.39;102881.94;4789905;29;20046;-78
2022/03/27 02:39:07;;;;;;;2.70;1.08;;;;;;;3.49;79.78;102872.34;4776707;29;20072;-78
2022/03/27 02:41:33;;;;;;;3.20;1.27;;;;;;;3.35;80.00;102850.28;4791583;29;20069;-78
2022/03/27 02:43:58;;;;;;;5.32;1.17;;;;;;;3.16;80.33;102816.91;4790294;29;20049;-78
2022/03/27 02:46:24;;;;;;;5.70;1.30;;;;;;;3.49;80.53;102866.19;4826268;29;20399;-78
2022/03/27 02:48:49;;;;;;;4.57;1.23;;;;;;;3.33;81.18;102823.75;4811242;29;20037;-78
2022/03/27 02:51:16;;;;;;;7.53;1.42;;;;;;;3.51;81.86;102845.66;4814067;29;20027;-79
2022/03/27 02:53:41;;;;;;;4.10;1.20;;;;;;;3.02;82.75;102756.66;4810553;29;20107;-78
2022/03/27 02:56:08;;;;;;;6.40;1.65;;;;;;;3.48;82.71;102838.72;4774759;29;20031;-78
2022/03/27 02:58:34;;;;;;;5.85;1.23;;;;;;;3.48;83.93;102829.88;4790575;29;20035;-78
2022/03/27 03:01:00;;;;;;;5.07;1.50;;;;;;;3.22;83.94;102781.91;4803662;29;20484;-78
2022/03/27 03:03:25;;;;;;;4.25;1.38;;;;;;;3.47;84.33;102815.69;4806887;29;20047;-78
2022/03/27 03:05:51;;;;;;;5.95;1.10;;;;;;;3.47;85.67;102809.53;4757211;30;20046;-78
2022/03/27 03:08:18;;;;;;;6.15;1.30;;;;;;;3.48;85.99;102805.94;4772415;30;20124;-78
2022/03/27 03:10:44;;;;;;;11.43;1.60;;;;;;;3.50;86.41;102804.00;4798797;29;20023;-78
2022/03/27 03:13:10;;;;;;;5.78;1.52;;;;;;;3.52;87.04;102802.09;4790649;29;20034;-78
2022/03/27 03:15:37;;;;;;;6.40;1.08;;;;;;;3.21;88.33;102750.97;4776007;29;20039;-78
2022/03/27 03:18:05;;;;;;;6.80;1.50;;;;;;;3.53;88.54;102795.81;4792401;29;20347;-78
2022/03/27 03:20:31;;;;;;;6.68;1.00;;;;;;;3.03;89.24;102707.81;4789851;29;20102;-78
2022/03/27 03:22:57;;;;;;;8.25;1.45;;;;;;;3.35;90.53;102757.16;4808146;29;20038;-78
2022/03/27 03:25:23;;;;;;;5.28;1.40;;;;;;;3.29;90.67;102753.94;4805182;29;20034;-78
2022/03/27 03:27:48;;;;;;;7.65;1.60;;;;;;;3.49;92.30;102781.88;4824735;29;20056;-78
2022/03/27 03:30:15;;;;;;;5.78;1.30;;;;;;;3.33;92.75;102759.06;4789302;29;20458;-78
2022/03/27 03:32:41;;;;;;;4.30;1.17;;;;;;;3.58;93.14;102795.50;4820985;29;20040;-78
2022/03/27 03:35:07;;;;;;;4.30;1.35;;;;;;;3.59;93.60;102803.38;4809613;29;20039;-78
2022/03/27 03:37:32;;;;;;;5.10;1.40;;;;;;;3.58;95.71;102795.50;4806385;29;20349;-77
2022/03/27 03:39:58;;;;;;;4.85;1.25;;;;;;;3.46;95.30;102768.75;4796617;29;20514;-79
2022/03/27 03:42:23;;;;;;;6.80;1.23;;;;;;;3.21;96.16;102726.13;4822333;29;20034;-79
2022/03/27 03:44:50;;;;;;;4.60;1.40;;;;;;;3.55;96.72;102775.28;4823373;29;20042;-79
2022/03/27 03:47:16;;;;;;;5.05;1.33;;;;;;;3.54;98.00;102778.88;4765231;29;20125;-79
2022/03/27 03:49:41;;;;;;;6.68;1.30;;;;;;;3.23;98.83;102709.13;4796892;29;20125;-78
2022/03/27 03:52:08;;;;;;;6.75;1.40;;;;;;;3.58;99.12;102758.25;4790485;29;20042;-78
2022/03/27 03:54:35;;;;;;;6.13;1.63;;;;;;;3.58;100.00;102753.78;4790623;29;20043;-78
2022/03/27 03:57:02;;;;;;;4.22;1.27;;;;;;;3.59;100.00;102739.50;4806087;29;20045;-79
2022/03/27 03:59:28;;;;;;;5.15;1.33;;;;;;;3.61;100.00;102734.06;4789265;29;20043;-78
2022/03/27 04:01:56;;;;;;;5.63;1.40;;;;;;;3.64;100.00;102737.38;4781874;29;20050;-78
2022/03/27 04:04:21;;;;;;;6.60;1.33;;;;;;;3.66;100.00;102723.94;4788652;29;20395;-78
2022/03/27 04:06:46;;;;;;;6.75;1.40;;;;;;;3.67;100.00;102715.84;4785376;29;20123;-78
2022/03/27 04:09:12;;;;;;;4.03;1.52;;;;;;;3.38;100.00;102661.13;4757338;30;20035;-78
2022/03/27 04:11:37;;;;;;;6.43;1.20;;;;;;;3.46;100.00;102670.28;4787838;29;20039;-78
2022/03/27 04:14:03;;;;;;;4.15;1.00;;;;;;;3.74;100.00;102705.63;4790660;29;20050;-78
2022/03/27 04:16:28;;;;;;;4.50;1.25;;;;;;;3.78;100.00;102695.63;4788458;29;20057;-78
2022/03/27 04:19:01;;;;;;;5.32;1.30;;;;;;;3.56;100.00;102646.53;4777411;29;20055;-78
2022/03/27 04:21:27;;;;;;;5.47;1.40;;;;;;;3.82;100.00;102673.13;4796424;29;20129;-78
2022/03/27 04:23:52;;;;;;;6.68;1.25;;;;;;;3.83;100.00;102682.81;4808950;29;20121;-79
2022/03/27 04:26:18;;;;;;;4.50;1.30;;;;;;;2.81;100.00;102503.72;4793321;29;20374;-78
2022/03/27 04:28:43;;;;;;;6.32;1.60;;;;;;;3.76;100.00;102650.47;4808949;29;20026;-78
2022/03/27 04:31:09;;;;;;;4.55;1.00;;;;;;;3.85;100.00;102659.59;4806002;29;20026;-78
2022/03/27 04:33:35;;;;;;;8.52;1.65;;;;;;;3.88;100.00;102654.91;4779503;29;20035;-79
2022/03/27 04:36:04;;;;;;;5.95;1.40;;;;;;;3.72;100.00;102617.88;4781737;29;20192;-78
2022/03/27 04:38:29;;;;;;;5.00;1.10;;;;;;;3.76;100.00;102630.00;4826623;29;20464;-78
2022/03/27 04:40:55;;;;;;;9.55;1.42;;;;;;;3.66;100.00;102612.97;4807667;29;20114;-78
2022/03/27 04:43:25;;;;;;;5.65;1.40;;;;;;;3.59;100.00;102598.41;4811424;29;20026;-78
2022/03/27 04:45:51;;;;;;;5.45;1.33;;;;;;;3.90;100.00;102641.47;4809248;29;20035;-79
2022/03/27 04:48:16;;;;;;;7.72;1.42;;;;;;;3.75;100.00;102611.50;4811615;29;20368;-78
2022/03/27 04:50:42;;;;;;;4.88;1.58;;;;;;;3.64;100.00;102587.44;4793912;29;20045;-78
2022/03/27 04:53:07;;;;;;;4.45;1.10;;;;;;;3.53;100.00;102561.59;4820136;29;20057;-78
2022/03/27 04:55:33;;;;;;;4.57;1.10;;;;;;;3.71;100.00;102578.06;4801961;29;20039;-78
2022/03/27 04:57:59;;;;;;;5.50;1.58;;;;;;;3.85;100.00;102601.03;4793678;29;20035;-78
2022/03/27 05:00:25;;;;;;;7.78;1.25;;;;;;;4.01;100.00;102620.25;4790882;29;20051;-79
2022/03/27 05:02:50;;;;;;;3.35;1.00;;;;;;;4.07;100.00;102618.94;4795503;29;20049;-77
2022/03/27 05:05:17;;;;;;;5.57;1.27;;;;;;;4.10;100.00;102611.56;4798101;29;20047;-78
2022/03/27 05:07:44;;;;;;;9.80;1.52;;;;;;;3.63;100.00;102527.16;4782532;30;20142;-78
2022/03/27 05:10:12;;;;;;;5.68;1.30;;;;;;;4.17;100.00;102596.88;4778534;30;20034;-76
2022/03/27 05:12:40;;;;;;;8.35;1.52;;;;;;;4.16;100.00;102588.97;4794494;30;20042;-78
2022/03/27 05:15:09;;;;;;;5.13;1.17;;;;;;;4.06;100.00;102556.81;4789444;29;20031;-79
2022/03/27 05:17:49;;;;;;;4.07;1.13;;;;;;;4.09;100.00;102559.25;4779253;30;20047;-79
2022/03/27 05:20:15;;;;;;;8.15;1.50;;;;;;;4.28;100.00;102581.88;4782779;30;20018;-78
2022/03/27 05:22:42;;;;;;;5.85;1.20;;;;;;;4.48;100.00;102592.75;4775487;30;20119;-78
2022/03/27 05:25:09;;;;;;;5.85;1.15;;;;;;;4.60;100.00;102595.44;4774070;30;20035;-78
2022/03/27 05:27:44;;;;;;;4.70;1.10;;;;;;;4.64;100.00;102575.59;4773999;30;20063;-79
2022/03/27 05:30:10;;;;;;;2.40;0.85;;;;;;;4.69;100.00;102563.59;4787159;29;20150;-77
2022/03/27 05:32:36;;;;;;;7.47;1.10;;;;;;;4.81;100.00;102574.31;4789634;30;20426;-78
2022/03/27 05:35:02;;;;;;;6.53;1.38;;;;;;;4.86;100.00;102566.78;4755772;30;20035;-79
2022/03/27 05:37:29;;;;;;;4.70;0.95;;;;;;;4.92;100.00;102564.50;4783564;29;20113;-80
2022/03/27 05:39:54;;;;;;;5.78;1.00;;;;;;;5.02;100.00;102564.63;4773675;29;20041;-80
2022/03/27 05:42:19;;;;;;;11.50;1.35;;;;;;;4.98;100.00;102552.50;4791851;29;20034;-79
2022/03/27 05:44:45;;;;;;;7.10;1.17;;;;;;;5.16;100.00;102567.06;4774241;29;20082;-80
2022/03/27 05:47:10;;;;;;;4.15;1.00;;;;;;;5.04;100.00;102540.50;4790981;30;20104;-80
2022/03/27 05:49:36;;;;;;;5.32;1.10;;;;;;;5.13;100.00;102543.31;4788864;29;20035;-81
2022/03/27 05:52:02;;;;;;;6.97;1.33;;;;;;;5.35;100.00;102573.63;4790926;30;20467;-82
2022/03/27 05:54:28;;;;;;;4.57;1.10;;;;;;;5.43;100.00;102563.22;4767360;29;20126;-81
2022/03/27 05:56:53;;;;;;;5.70;1.15;;;;;;;5.36;100.00;102532.59;4804241;29;20034;-79
2022/03/27 05:59:19;;;;;;;5.55;1.33;;;;;;;5.50;100.00;102545.72;4774902;30;20054;-80
2022/03/27 06:01:45;;;;;;;5.00;0.98;;;;;;;5.69;100.00;102557.56;4789309;30;20122;-80
2022/03/27 06:04:10;;;;;;;7.15;1.45;;;;;;;5.29;100.00;102488.69;4781775;29;20016;-80
2022/03/27 06:06:36;;;;;;;4.80;1.27;;;;;;;5.80;100.00;102552.22;4772706;29;20047;-79
2022/03/27 06:09:02;;;;;;;5.18;0.80;;;;;;;5.88;100.00;102539.91;4806563;29;20370;-80
2022/03/27 06:11:29;;;;;;;4.93;1.13;;;;;;;5.95;100.00;102547.47;4807561;29;20035;-80
2022/03/27 06:13:56;;;;;;;4.03;0.80;;;;;;;5.86;100.00;102519.66;4790327;29;20046;-79
2022/03/27 06:16:21;;;;;;;6.15;1.13;;;;;;;5.99;100.00;102515.00;4790555;29;20586;-79
2022/03/27 06:18:47;;;;;;;5.25;1.27;;;;;;;6.17;100.00;102530.53;4808451;29;20046;-80
2022/03/27 06:21:13;;;;;;;5.15;1.27;;;;;;;6.00;100.00;102483.81;4770284;29;20037;-80
2022/03/27 06:23:38;;;;;;;8.13;1.10;;;;;;;6.40;100.00;102518.75;4806140;29;20425;-80
2022/03/27 06:26:04;;;;;;;4.57;1.15;;;;;;;6.34;100.00;102492.53;4790227;29;20026;-80
2022/03/27 06:28:29;;;;;;;3.92;0.93;;;;;;;6.58;100.00;102527.00;4790274;29;20035;-78
2022/03/27 06:30:55;;;;;;;5.97;1.30;;;;;;;6.67;100.00;102520.03;4790374;29;20041;-79
2022/03/27 06:33:20;;;;;;;6.75;1.70;;;;;;;6.77;100.00;102513.75;4807039;29;20085;-80
2022/03/27 06:35:45;;;;;;;5.10;1.30;;;;;;;6.79;100.00;102513.66;4805760;29;20062;-80
2022/03/27 06:38:11;;;;;;;4.93;1.20;;;;;;;6.66;100.00;102483.59;4791068;29;20039;-80
2022/03/27 06:40:37;;;;;;;5.88;1.27;;;;;;;6.97;100.00;102535.28;4763601;29;20454;-79
2022/03/27 06:43:02;;;;;;;5.18;1.30;;;;;;;7.02;100.00;102531.22;4773951;29;20374;-80
2022/03/27 06:45:28;;;;;;;6.07;1.30;;;;;;;7.14;99.11;102520.44;4805110;29;20045;-80
2022/03/27 06:47:53;;;;;;;7.40;1.20;;;;;;;7.00;98.50;102478.81;4801406;29;20370;-80
2022/03/27 06:50:22;;;;;;;7.28;1.55;;;;;;;7.25;97.92;102514.97;4792113;29;20034;-80
2022/03/27 06:52:49;;;;;;;7.35;1.73;;;;;;;7.37;97.21;102519.25;4792323;29;20095;-79
2022/03/27 06:55:15;;;;;;;7.18;1.45;;;;;;;7.39;96.97;102522.63;4807071;29;20026;-80
2022/03/27 06:57:41;;;;;;;8.35;1.70;;;;;;;7.49;95.66;102507.44;4777422;29;20125;-80
2022/03/27 07:03:06;;;;;;;11.43;2.30;;;;;;;7.61;95.11;102502.81;4789695;29;20046;-80
2022/03/27 07:05:42;;;;;;;11.02;2.38;;;;;;;7.52;94.82;102472.34;4801885;29;20051;-80
2022/03/27 07:08:10;;;;;;;11.55;2.50;;;;;;;7.70;94.07;102475.19;4790048;29;20058;-79
2022/03/27 07:10:37;;;;;;;11.40;2.50;;;;;;;7.72;94.28;102480.44;4774535;29;20125;-80
2022/03/27 07:13:05;;;;;;;15.65;2.78;;;;;;;7.73;93.88;102482.09;4806261;29;20037;-81
2022/03/27 07:15:31;;;;;;;13.95;2.80;;;;;;;7.75;93.75;102483.66;4812388;29;20045;-80
2022/03/27 07:17:59;;;;;;;12.73;2.72;;;;;;;7.79;93.23;102486.91;4807504;29;20359;-80
2022/03/27 07:20:30;;;;;;;14.32;3.17;;;;;;;7.80;92.84;102493.97;4812307;29;20017;-79
2022/03/27 07:22:59;;;;;;;14.70;3.03;;;;;;;7.87;92.64;102495.09;4808775;29;20077;-80
2022/03/27 07:25:26;;;;;;;17.65;3.70;;;;;;;7.87;93.50;102503.13;4804358;29;20031;-80
2022/03/27 07:27:53;;;;;;;13.25;3.22;;;;;;;7.84;93.19;102484.66;4805103;29;20042;-80
2022/03/27 07:30:19;;;;;;;14.75;3.55;;;;;;;8.21;92.34;102514.31;4791322;29;20022;-80
2022/03/27 07:32:44;;;;;;;13.80;3.75;;;;;;;8.18;92.56;102508.38;4776630;29;20098;-81
2022/03/27 07:35:14;;;;;;;17.80;4.45;;;;;;;8.25;92.65;102506.81;4818309;29;20141;-80
2022/03/27 07:37:41;;;;;;;20.38;5.72;;;;;;;8.32;92.68;102491.84;4790064;29;20072;-80
2022/03/27 07:40:10;;;;;;;22.05;5.00;;;;;;;8.39;92.98;102490.31;4788329;29;20126;-80
2022/03/27 07:42:47;;;;;;;24.13;5.18;;;;;;;8.38;93.38;102494.00;4802248;29;20457;-80
2022/03/27 07:45:14;;;;;;;27.08;4.82;;;;;;;8.46;92.68;102496.78;4792164;29;20038;-80
2022/03/27 07:47:40;;;;;;;23.85;5.30;;;;;;;8.23;92.53;102442.59;4803056;29;20066;-81
2022/03/27 07:50:07;;;;;;;23.40;5.63;;;;;;;8.46;92.69;102461.91;4776133;29;20077;-80
2022/03/27 07:52:34;;;;;;;31.50;6.65;;;;;;;8.57;92.65;102487.72;4789605;29;20493;-80
2022/03/27 07:55:00;;;;;;;33.13;6.70;;;;;;;8.59;92.67;102474.19;4811291;29;20062;-81
2022/03/27 07:57:26;;;;;;;20.95;4.85;;;;;;;8.72;93.12;102487.28;4831242;29;20017;-80
2022/03/27 07:59:52;;;;;;;26.48;5.75;;;;;;;8.75;93.15;102489.69;4812539;29;20447;-81
2022/03/27 08:02:21;;;;;;;28.30;6.40;;;;;;;8.35;93.17;102429.88;4783345;29;20038;-80
2022/03/27 08:04:49;;;;;;;26.27;5.57;;;;;;;8.65;93.71;102476.28;4779359;29;20375;-80
2022/03/27 08:07:15;;;;;;;27.27;5.95;;;;;;;8.54;92.94;102446.94;4792504;29;20116;-81
2022/03/27 08:09:42;;;;;;;24.95;5.78;;;;;;;8.37;93.43;102429.72;4809019;29;20362;-80
2022/03/27 08:12:11;;;;;;;28.15;5.70;;;;;;;8.62;93.27;102457.78;4762309;29;20026;-80
2022/03/27 08:14:37;;;;;;;26.77;6.18;;;;;;;8.77;93.41;102476.94;4809739;29;20049;-79
2022/03/27 08:17:03;;;;;;;22.45;5.55;;;;;;;8.78;92.39;102458.03;4805108;29;20042;-81
2022/03/27 08:19:29;;;;;;;28.67;6.10;;;;;;;8.99;92.58;102475.75;4805602;29;20023;-80
2022/03/27 08:21:55;;;;;;;27.83;6.25;;;;;;;8.94;92.26;102463.63;4809323;29;20554;-81
2022/03/27 08:24:21;;;;;;;23.58;6.10;;;;;;;8.76;92.12;102433.16;4810146;29;20416;-80
2022/03/27 08:26:55;;;;;;;25.05;6.55;;;;;;;8.88;92.11;102439.19;4798053;29;20038;-80
2022/03/27 08:29:25;;;;;;;27.02;6.68;;;;;;;8.89;92.05;102443.56;4799386;29;20096;-80
2022/03/27 08:31:54;;;;;;;29.30;6.53;;;;;;;9.04;92.27;102466.25;4824347;29;20030;-80
2022/03/27 08:34:23;;;;;;;24.58;6.03;;;;;;;9.05;92.16;102473.31;4796943;29;20095;-81
2022/03/27 08:37:02;;;;;;;30.48;5.40;;;;;;;9.10;92.25;102475.53;4809260;29;20069;-80
2022/03/27 08:39:28;;;;;;;31.58;5.97;;;;;;;9.07;92.32;102470.47;4792551;29;20023;-81
2022/03/27 08:41:56;;;;;;;30.33;5.97;;;;;;;9.11;91.93;102470.03;4794918;29;20046;-81
2022/03/27 08:44:24;;;;;;;31.02;7.63;;;;;;;8.89;92.34;102438.19;4818058;29;20034;-81
2022/03/27 08:46:52;;;;;;;31.10;6.55;;;;;;;9.11;92.67;102471.88;4813042;29;20039;-82
2022/03/27 08:49:17;;;;;;;25.42;5.68;;;;;;;9.14;92.89;102472.44;4793549;29;20031;-81
2022/03/27 08:52:00;;;;;;;24.77;6.57;;;;;;;9.05;92.65;102475.16;4809585;29;20042;-81
2022/03/27 08:54:37;;;;;;;26.48;6.22;;;;;;;8.95;92.78;102459.09;4809673;29;20477;-81
2022/03/27 08:57:17;;;;;;;25.70;5.45;;;;;;;8.89;92.54;102439.03;4824134;29;20041;-81
2022/03/27 08:59:44;;;;;;;29.55;6.63;;;;;;;9.08;93.21;102446.16;4811152;29;20164;-81
2022/03/27 09:02:13;;;;;;;27.75;6.97;;;;;;;9.12;92.39;102446.72;4795206;29;20477;-81
2022/03/27 09:04:40;;;;;;;29.85;7.00;;;;;;;8.40;92.60;102322.16;4810018;29;20185;-81
2022/03/27 09:07:05;;;;;;;28.20;5.45;;;;;;;9.20;93.22;102465.59;4793675;29;20457;-82
2022/03/27 09:09:51;;;;;;;23.58;5.05;;;;;;;9.26;92.67;102467.69;4780304;29;20031;-81
2022/03/27 09:12:19;;;;;;;26.20;5.40;;;;;;;9.10;93.21;102429.88;4790924;29;20023;-81
2022/03/27 09:14:45;;;;;;;27.08;5.95;;;;;;;9.00;92.21;102402.25;4809504;29;20030;-81
2022/03/27 09:17:10;;;;;;;24.17;5.88;;;;;;;9.18;92.48;102464.91;4775808;29;20027;-82
2022/03/27 09:19:41;;;;;;;24.75;5.65;;;;;;;9.24;92.55;102472.38;4791700;29;20044;-82
2022/03/27 09:22:30;;;;;;;26.17;5.35;;;;;;;9.14;92.48;102442.88;4811974;29;20095;-81
2022/03/27 09:24:59;;;;;;;24.40;5.25;;;;;;;9.28;93.05;102446.91;4797759;29;20118;-82
2022/03/27 09:27:39;;;;;;;22.40;5.53;;;;;;;9.35;92.77;102456.06;4796603;29;20544;-82
2022/03/27 09:30:10;;;;;;;23.92;4.93;;;;;;;9.32;93.31;102440.22;4797852;29;20034;-81
2022/03/27 09:32:45;;;;;;;32.88;5.57;;;;;;;9.43;92.34;102447.22;4792937;29;20038;-82
2022/03/27 09:35:17;;;;;;;26.23;5.18;;;;;;;9.34;92.92;102435.56;4797743;29;20042;-81
2022/03/27 09:37:47;;;;;;;22.70;4.88;;;;;;;9.39;92.70;102462.81;4796992;29;20484;-81
2022/03/27 09:40:15;;;;;;;28.67;5.47;;;;;;;9.35;93.19;102461.41;4804290;29;20037;-80
2022/03/27 09:42:41;;;;;;;28.65;5.10;;;;;;;9.25;93.58;102432.94;4826660;29;20034;-82
2022/03/27 09:45:19;;;;;;;26.63;5.00;;;;;;;9.37;93.48;102427.19;4817801;29;20031;-82
2022/03/27 09:47:48;;;;;;;23.20;4.55;;;;;;;9.36;93.47;102409.38;4824483;29;20090;-83
2022/03/27 09:50:35;;;;;;;24.45;4.88;;;;;;;9.40;93.54;102421.53;4810835;29;20023;-82
2022/03/27 09:53:22;;;;;;;25.77;5.03;;;;;;;9.27;93.58;102394.19;4826762;29;20050;-82
2022/03/27 09:56:13;;;;;;;25.02;4.50;;;;;;;9.52;93.78;102419.44;4798485;29;20050;-82
2022/03/27 09:58:46;;;;;;;17.83;4.13;;;;;;;9.48;94.32;102427.97;4788011;29;20038;-81
2022/03/27 10:01:22;;;;;;;21.65;4.68;;;;;;;9.57;93.45;102432.41;4802595;29;20023;-83
2022/03/27 10:04:00;;;;;;;18.38;3.75;;;;;;;9.61;94.03;102429.28;4795498;29;20067;-81
2022/03/27 10:06:45;;;;;;;25.25;4.75;;;;;;;9.59;93.94;102446.56;4808315;29;20350;-81
2022/03/27 10:09:14;;;;;;;21.30;4.20;;;;;;;9.37;94.27;102392.28;4793893;29;20046;-82
2022/03/27 10:11:43;;;;;;;20.70;4.32;;;;;;;9.57;94.39;102410.91;4771868;29;20053;-80
2022/03/27 10:14:29;;;;;;;18.80;3.97;;;;;;;9.71;94.14;102429.22;4798719;29;20035;-80
2022/03/27 10:16:56;;;;;;;20.13;4.32;;;;;;;9.31;95.06;102378.59;4788953;29;20157;-81
2022/03/27 10:19:31;;;;;;;17.75;3.78;;;;;;;9.19;95.57;102383.34;4788390;29;20039;-80
2022/03/27 10:21:58;;;;;;;22.25;3.47;;;;;;;9.35;96.97;102423.81;4790663;30;20039;-82
2022/03/27 10:24:32;;;;;;;19.88;3.65;;;;;;;9.36;97.28;102417.44;4789120;29;20133;-81
2022/03/27 10:27:01;;;;;;;21.50;4.18;;;;;;;9.45;98.03;102437.19;4810735;29;20043;-82
2022/03/27 10:29:45;;;;;;;15.70;3.83;;;;;;;8.95;98.83;102381.22;4790019;29;20521;-81
2022/03/27 10:32:12;;;;;;;17.63;3.45;;;;;;;9.36;99.19;102430.03;4778497;30;20465;-81
2022/03/27 10:34:51;;;;;;;17.25;3.50;;;;;;;9.24;100.00;102415.97;4798451;29;20570;-81
2022/03/27 10:37:39;;;;;;;19.70;3.85;;;;;;;9.22;100.00;102412.59;4799297;29;20147;-82
2022/03/27 10:40:18;;;;;;;15.85;3.75;;;;;;;9.01;100.00;102366.38;4798152;29;20039;-82
2022/03/27 10:43:15;;;;;;;12.63;3.17;;;;;;;9.37;99.92;102416.47;4797378;30;20473;-82
2022/03/27 10:45:41;;;;;;;13.95;3.53;;;;;;;9.39;99.42;102406.38;4773643;30;20055;-81
2022/03/27 10:48:12;;;;;;;10.43;2.50;;;;;;;9.49;99.00;102414.38;4790371;30;20379;-83
2022/03/27 10:50:50;;;;;;;14.45;2.92;;;;;;;9.23;98.43;102402.69;4802357;29;20452;-80
2022/03/27 10:53:16;;;;;;;13.05;2.30;;;;;;;9.25;98.84;102414.13;4807869;30;20066;-82
2022/03/27 10:55:46;;;;;;;13.43;2.65;;;;;;;8.85;98.32;102321.38;4790264;29;20027;-83
2022/03/27 10:58:32;;;;;;;14.25;2.80;;;;;;;9.23;98.61;102413.44;4822150;29;20037;-83
2022/03/27 11:01:04;;;;;;;15.77;3.05;;;;;;;9.30;99.60;102418.03;4829032;29;20027;-83
2022/03/27 11:04:04;;;;;;;11.25;2.35;;;;;;;9.14;100.00;102418.72;4815199;29;20035;-82
2022/03/27 11:06:49;;;;;;;11.45;2.30;;;;;;;8.71;100.00;102387.16;4792206;29;20443;-81
2022/03/27 11:09:36;;;;;;;9.43;2.20;;;;;;;8.79;100.00;102403.34;4806712;29;20027;-81
2022/03/27 11:12:24;;;;;;;17.20;2.55;;;;;;;8.91;100.00;102425.47;4787843;29;20339;-81
2022/03/27 11:14:52;;;;;;;10.32;2.30;;;;;;;9.04;100.00;102414.38;4788081;29;20042;-81
2022/03/27 11:17:37;;;;;;;11.15;2.22;;;;;;;8.95;100.00;102373.19;4810598;29;20041;-80
2022/03/27 11:20:31;;;;;;;10.00;2.40;;;;;;;9.17;100.00;102409.50;4799261;29;20037;-80
2022/03/27 11:22:59;;;;;;;13.68;2.47;;;;;;;9.09;99.94;102395.97;4787500;29;20070;-81
2022/03/27 11:25:45;;;;;;;11.35;2.30;;;;;;;9.26;100.00;102408.59;4789868;29;20487;-80
2022/03/27 11:28:20;;;;;;;9.38;1.85;;;;;;;9.45;100.00;102394.19;4791491;29;20045;-80
2022/03/27 11:30:45;;;;;;;;;;;;;;;9.48;100.00;102401.94;4815125;29;20354;-83
2022/03/27 11:33:22;;;;;;;10.15;2.00;;;;;;;9.24;100.00;102377.50;4808022;29;19917;-80
2022/03/27 11:36:14;;;;;;;8.05;1.80;;;;;;;9.39;100.00;102386.75;4792096;29;20462;-80
2022/03/27 11:39:11;;;;;;;7.57;1.52;;;;;;;9.48;100.00;102406.47;4793304;29;20031;-80